Terminal Aerodrome Forecast
Issued by NWS Upton, NY

Home | Current Version | Previous Version | Text Only | Print | Product List | Glossary On
Versions: 1 2 3 4 5 6 7 8 9 10 11 12 13 14 15 16 17 18 19 20 21 22 23 24 25 26 27 28
000
FTUS41 KOKX 240800 AAA
TAFEWR
TAF AMD
KEWR 240840Z 2409/2512 33008KT P6SM SCT025 SCT050 BKN140
      TEMPO 2409/2413 BKN025
     FM241300 35011KT P6SM SCT030 SCT150 BKN250
     FM242300 35008KT P6SM SCT060 SCT250=

USA.gov is the U.S. government's official web portal to all federal, state and local government web resources and services.